createdAt,value
2018-07-17T00:01:59.834Z,7.73
2018-07-17T00:04:28.358Z,6.43
2018-07-17T00:06:56.923Z,7.40
2018-07-17T00:09:25.485Z,6.53
2018-07-17T00:11:54.715Z,6.90
2018-07-17T00:14:23.286Z,7.40
2018-07-17T00:16:51.752Z,8.33
2018-07-17T00:19:20.327Z,9.47
2018-07-17T00:21:48.827Z,9.13
2018-07-17T00:24:17.401Z,8.53
2018-07-17T00:26:45.834Z,6.57
2018-07-17T00:29:14.285Z,7.67
2018-07-17T00:31:42.887Z,9.43
2018-07-17T00:34:11.452Z,7.57
2018-07-17T00:36:39.894Z,9.20
2018-07-17T00:39:08.636Z,7.20
2018-07-17T00:41:37.161Z,9.20
2018-07-17T00:44:05.694Z,6.83
2018-07-17T00:46:34.233Z,9.03
2018-07-17T00:49:02.721Z,6.60
2018-07-17T00:51:31.199Z,9.77
2018-07-17T00:53:59.764Z,9.27
2018-07-17T00:56:28.200Z,6.87
2018-07-17T00:58:56.620Z,9.27
2018-07-17T01:01:30.519Z,9.60
2018-07-17T01:04:04.185Z,7.67
2018-07-17T01:06:38.039Z,8.57
2018-07-17T01:09:13.133Z,9.73
2018-07-17T01:11:47.041Z,7.87
2018-07-17T01:14:20.505Z,9.03
2018-07-17T01:16:49.005Z,9.13
2018-07-17T01:19:17.451Z,9.03
2018-07-17T01:21:45.965Z,7.60
2018-07-17T01:24:14.392Z,8.03
2018-07-17T01:26:42.845Z,10.43
2018-07-17T01:29:11.291Z,10.17
2018-07-17T01:31:39.761Z,8.33
2018-07-17T01:34:08.260Z,10.97
2018-07-17T01:36:36.733Z,9.90
2018-07-17T01:39:06.555Z,8.47
2018-07-17T01:41:35.019Z,10.40
2018-07-17T01:44:03.562Z,10.37
2018-07-17T01:46:32.119Z,11.00
2018-07-17T01:49:00.680Z,8.60
2018-07-17T01:51:29.168Z,10.23
2018-07-17T01:53:57.870Z,9.80
2018-07-17T01:56:26.309Z,10.43
2018-07-17T01:58:54.773Z,10.53
2018-07-17T02:01:23.911Z,8.80
2018-07-17T02:03:52.403Z,11.07
2018-07-17T02:06:20.888Z,10.60
2018-07-17T02:08:50.580Z,10.50
2018-07-17T02:11:19.073Z,9.63
2018-07-17T02:13:47.554Z,7.83
2018-07-17T02:16:16.181Z,10.10
2018-07-17T02:18:45.330Z,7.90
2018-07-17T02:21:13.955Z,9.33
2018-07-17T02:23:42.607Z,10.03
2018-07-17T02:26:11.074Z,9.20
2018-07-17T02:28:39.556Z,9.23
2018-07-17T02:31:08.358Z,9.60
2018-07-17T02:33:36.836Z,9.57
2018-07-17T02:36:05.447Z,11.20
2018-07-17T02:38:33.887Z,8.90
2018-07-17T02:41:02.385Z,10.07
2018-07-17T02:43:30.915Z,11.00
2018-07-17T02:45:59.444Z,10.17
2018-07-17T02:48:27.885Z,10.57
2018-07-17T02:50:56.440Z,10.87
2018-07-17T02:53:25.004Z,10.90
2018-07-17T02:55:53.630Z,11.87
2018-07-17T02:58:22.100Z,12.23
2018-07-17T03:00:50.645Z,11.73
2018-07-17T03:03:19.229Z,14.33
2018-07-17T03:05:47.693Z,14.30
2018-07-17T03:08:16.221Z,15.63
2018-07-17T03:10:44.795Z,15.53
2018-07-17T03:13:13.268Z,16.07
2018-07-17T03:15:41.721Z,15.87
2018-07-17T03:18:10.159Z,14.80
2018-07-17T03:20:38.716Z,14.70
2018-07-17T03:23:07.195Z,13.10
2018-07-17T03:25:35.637Z,14.93
2018-07-17T03:28:04.168Z,14.90
2018-07-17T03:30:32.736Z,14.23
2018-07-17T03:33:01.324Z,13.57
2018-07-17T03:35:30.421Z,14.17
2018-07-17T03:37:59.109Z,14.57
2018-07-17T03:40:27.577Z,14.97
2018-07-17T03:42:56.169Z,13.80
2018-07-17T03:45:24.698Z,13.63
2018-07-17T03:47:53.225Z,14.63
2018-07-17T03:50:21.823Z,14.20
2018-07-17T03:52:50.353Z,14.83
2018-07-17T03:55:18.856Z,15.03
2018-07-17T03:57:47.351Z,15.07
2018-07-17T04:00:15.871Z,14.33
2018-07-17T04:02:44.369Z,14.43
2018-07-17T04:05:12.905Z,14.70
2018-07-17T04:07:41.393Z,14.33
2018-07-17T04:10:09.871Z,14.30
2018-07-17T04:12:38.314Z,15.37
2018-07-17T04:15:06.764Z,14.97
2018-07-17T04:17:35.338Z,14.93
2018-07-17T04:20:03.945Z,14.70
2018-07-17T04:22:32.560Z,13.87
2018-07-17T04:25:01.065Z,15.07
2018-07-17T04:27:29.549Z,15.33
2018-07-17T04:29:58.025Z,14.23
2018-07-17T04:32:26.544Z,14.77
2018-07-17T04:34:54.980Z,15.77
2018-07-17T04:37:23.520Z,15.13
2018-07-17T04:39:52.024Z,15.30
2018-07-17T04:42:20.542Z,16.13
2018-07-17T04:44:49.041Z,15.50
2018-07-17T04:47:17.509Z,14.20
2018-07-17T04:49:45.988Z,15.80
2018-07-17T04:52:14.468Z,15.40
2018-07-17T04:54:42.964Z,13.43
2018-07-17T04:57:11.694Z,13.87
2018-07-17T04:59:40.232Z,15.07
2018-07-17T05:02:09.057Z,16.40
2018-07-17T05:04:41.635Z,14.83
2018-07-17T05:07:10.289Z,15.77
2018-07-17T05:09:38.906Z,15.90
2018-07-17T05:12:07.480Z,15.17
2018-07-17T05:14:36.044Z,14.57
2018-07-17T05:17:04.519Z,15.53
2018-07-17T05:19:33.103Z,12.10
2018-07-17T05:22:01.541Z,14.07
2018-07-17T05:24:30.059Z,10.83
2018-07-17T05:26:58.586Z,14.70
2018-07-17T05:29:27.062Z,14.53
2018-07-17T05:31:55.667Z,13.30
2018-07-17T05:34:24.356Z,10.37
2018-07-17T05:36:53.120Z,13.40
2018-07-17T05:39:21.575Z,10.47
2018-07-17T05:41:50.063Z,12.50
2018-07-17T05:44:18.539Z,11.27
2018-07-17T05:46:47.009Z,13.33
2018-07-17T05:49:15.443Z,11.27
2018-07-17T05:51:43.987Z,13.00
2018-07-17T05:54:12.453Z,11.23
2018-07-17T05:56:40.870Z,14.73
2018-07-17T05:59:09.333Z,11.67
2018-07-17T06:01:37.804Z,13.90
2018-07-17T06:04:06.318Z,12.13
2018-07-17T06:06:34.757Z,14.63
2018-07-17T06:09:03.229Z,12.60
2018-07-17T06:11:31.739Z,12.63
2018-07-17T06:14:00.324Z,15.70
2018-07-17T06:16:29.006Z,12.97
2018-07-17T06:18:57.464Z,16.07
2018-07-17T06:21:25.951Z,12.33
2018-07-17T06:23:54.477Z,15.10
2018-07-17T06:26:22.920Z,11.83
2018-07-17T06:28:51.416Z,15.40
2018-07-17T06:31:19.948Z,12.93
2018-07-17T06:33:48.540Z,18.10
2018-07-17T06:36:17.085Z,13.00
2018-07-17T06:38:45.549Z,16.87
2018-07-17T06:41:14.121Z,13.63
2018-07-17T06:43:42.638Z,16.17
2018-07-17T06:46:11.184Z,13.10
2018-07-17T06:48:39.670Z,16.43
2018-07-17T06:51:08.128Z,14.13
2018-07-17T06:53:37.652Z,16.40
2018-07-17T06:56:06.196Z,13.57
2018-07-17T06:58:34.756Z,16.33
2018-07-17T07:01:03.251Z,13.17
2018-07-17T07:03:31.701Z,15.93
2018-07-17T07:06:00.838Z,13.23
2018-07-17T07:08:29.385Z,15.73
2018-07-17T07:10:57.944Z,12.37
2018-07-17T07:13:26.438Z,15.90
2018-07-17T07:15:55.024Z,14.30
2018-07-17T07:18:23.591Z,14.30
2018-07-17T07:20:52.090Z,10.47
2018-07-17T07:23:20.751Z,12.97
2018-07-17T07:25:49.910Z,10.77
2018-07-17T07:28:18.452Z,14.30
2018-07-17T07:30:47.039Z,11.17
2018-07-17T07:33:15.517Z,13.07
2018-07-17T07:35:44.872Z,13.33
2018-07-17T07:38:13.525Z,10.93
2018-07-17T07:40:42.127Z,11.00
2018-07-17T07:43:10.878Z,13.07
2018-07-17T07:45:39.400Z,9.37
2018-07-17T07:48:08.061Z,10.93
2018-07-17T07:50:36.508Z,9.23
2018-07-17T07:53:05.240Z,10.20
2018-07-17T07:55:33.809Z,8.83
2018-07-17T07:58:02.377Z,9.07
2018-07-17T08:00:30.845Z,8.43
2018-07-17T08:02:59.266Z,9.00
2018-07-17T08:05:27.826Z,8.77
2018-07-17T08:07:56.299Z,8.73
2018-07-17T08:10:24.737Z,7.23
2018-07-17T08:12:53.259Z,8.83
2018-07-17T08:15:21.738Z,7.90
2018-07-17T08:17:50.196Z,8.97
2018-07-17T08:20:18.705Z,8.10
2018-07-17T08:22:47.328Z,7.03
2018-07-17T08:25:15.865Z,9.23
2018-07-17T08:27:44.412Z,7.87
2018-07-17T08:30:12.901Z,7.33
2018-07-17T08:32:41.434Z,6.90
2018-07-17T08:35:10.237Z,5.00
2018-07-17T08:37:38.714Z,5.93
2018-07-17T08:40:08.443Z,6.17
2018-07-17T08:42:44.897Z,7.83
2018-07-17T08:45:13.469Z,5.70
2018-07-17T08:47:41.918Z,7.50
2018-07-17T08:50:10.427Z,6.67
2018-07-17T08:52:38.923Z,5.77
2018-07-17T08:55:07.502Z,6.57
2018-07-17T08:57:36.081Z,5.07
2018-07-17T09:00:05.174Z,5.80
2018-07-17T09:02:33.657Z,5.20
2018-07-17T09:05:02.241Z,5.27
2018-07-17T09:07:30.737Z,6.40
2018-07-17T09:09:59.182Z,4.53
2018-07-17T09:12:27.681Z,5.27
2018-07-17T09:14:56.227Z,4.57
2018-07-17T09:17:24.742Z,4.20
2018-07-17T09:19:53.226Z,4.07
2018-07-17T09:22:21.740Z,5.17
2018-07-17T09:24:50.402Z,4.60
2018-07-17T09:27:18.964Z,4.67
2018-07-17T09:29:47.429Z,4.53
2018-07-17T09:32:16.051Z,3.80
2018-07-17T09:34:44.510Z,5.30
2018-07-17T09:37:13.010Z,4.20
2018-07-17T09:39:41.474Z,4.43
2018-07-17T09:42:10.008Z,3.80
2018-07-17T09:44:51.147Z,3.00
2018-07-17T09:47:19.585Z,3.30
2018-07-17T09:49:48.145Z,2.77
2018-07-17T09:52:31.838Z,2.90
2018-07-17T09:58:49.552Z,2.50
2018-07-17T10:01:23.253Z,3.33
2018-07-17T10:03:51.780Z,2.67
2018-07-17T10:06:20.427Z,3.00
2018-07-17T10:12:10.227Z,2.30
2018-07-17T10:14:38.812Z,2.90
2018-07-17T10:17:07.333Z,3.40
2018-07-17T10:19:58.031Z,2.53
2018-07-17T10:22:26.527Z,3.00
2018-07-17T10:24:55.026Z,2.63
2018-07-17T10:27:23.465Z,2.57
2018-07-17T10:29:57.145Z,2.23
2018-07-17T10:32:25.631Z,1.97
2018-07-17T10:34:54.129Z,2.37
2018-07-17T10:37:22.571Z,2.20
2018-07-17T10:39:51.356Z,2.47
2018-07-17T10:42:20.128Z,2.27
2018-07-17T10:44:48.700Z,2.80
2018-07-17T10:47:17.227Z,2.80
2018-07-17T10:49:45.765Z,2.13
2018-07-17T10:52:14.242Z,2.40
2018-07-17T10:55:04.173Z,2.43
2018-07-17T10:57:32.701Z,2.30
2018-07-17T11:00:01.216Z,2.20
2018-07-17T11:02:29.763Z,1.97
2018-07-17T11:04:58.246Z,2.10
2018-07-17T11:07:26.729Z,1.93
2018-07-17T11:09:55.242Z,1.97
2018-07-17T11:12:35.484Z,2.10
2018-07-17T11:15:04.296Z,2.10
2018-07-17T11:17:33.030Z,1.80
2018-07-17T11:20:01.517Z,1.83
2018-07-17T11:22:30.159Z,1.70
2018-07-17T11:24:58.692Z,1.63
2018-07-17T11:27:30.862Z,1.70
2018-07-17T11:29:59.761Z,1.87
2018-07-17T11:32:28.231Z,1.73
2018-07-17T11:35:27.417Z,2.10
2018-07-17T11:37:56.032Z,1.50
2018-07-17T11:40:24.707Z,1.37
2018-07-17T11:42:53.232Z,1.20
2018-07-17T11:45:21.778Z,1.03
2018-07-17T11:48:03.815Z,1.37
2018-07-17T11:50:32.335Z,1.33
2018-07-17T11:53:02.897Z,1.27
2018-07-17T11:55:31.877Z,1.80
2018-07-17T11:58:00.485Z,1.20
2018-07-17T12:00:29.187Z,1.67
2018-07-17T12:02:57.722Z,1.60
2018-07-17T12:05:26.253Z,1.30
2018-07-17T12:07:55.089Z,1.53
2018-07-17T12:10:23.617Z,1.70
2018-07-17T12:12:52.419Z,1.40
2018-07-17T12:15:20.904Z,1.37
2018-07-17T12:17:57.439Z,1.77
2018-07-17T12:20:26.130Z,1.00
2018-07-17T12:22:54.476Z,1.10
2018-07-17T12:25:23.009Z,1.27
2018-07-17T12:27:51.545Z,1.57
2018-07-17T12:30:20.063Z,1.80
2018-07-17T12:32:48.616Z,2.13
2018-07-17T12:35:17.181Z,1.50
2018-07-17T12:37:45.653Z,1.80
2018-07-17T12:40:14.198Z,1.80
2018-07-17T12:42:46.014Z,1.87
2018-07-17T12:45:14.567Z,2.37
2018-07-17T12:47:43.101Z,1.60
2018-07-17T12:50:11.633Z,1.70
2018-07-17T12:52:40.210Z,1.77
2018-07-17T12:55:35.176Z,1.50
2018-07-17T12:58:03.732Z,2.20
2018-07-17T13:00:32.231Z,2.30
2018-07-17T13:03:00.802Z,2.30
2018-07-17T13:05:29.393Z,4.47
2018-07-17T13:07:57.971Z,3.00
2018-07-17T13:10:26.436Z,2.57
2018-07-17T13:12:54.923Z,2.13
2018-07-17T13:15:23.402Z,1.90
2018-07-17T13:17:51.946Z,2.60
2018-07-17T13:20:20.482Z,2.40
2018-07-17T13:22:49.075Z,2.97
2018-07-17T13:25:17.649Z,3.10
2018-07-17T13:27:46.113Z,5.27
2018-07-17T13:30:14.699Z,3.07
2018-07-17T13:32:43.280Z,4.07
2018-07-17T13:35:11.960Z,3.83
2018-07-17T13:37:40.412Z,3.30
2018-07-17T13:40:09.250Z,3.83
2018-07-17T13:42:37.808Z,3.33
2018-07-17T13:45:06.645Z,4.27
2018-07-17T13:47:35.173Z,4.73
2018-07-17T13:50:03.774Z,4.50
2018-07-17T13:52:32.232Z,6.17
2018-07-17T13:55:00.733Z,5.57
2018-07-17T13:57:29.630Z,5.60
2018-07-17T13:59:58.274Z,5.00
2018-07-17T14:02:26.742Z,5.63
2018-07-17T14:04:55.288Z,4.77
2018-07-17T14:07:23.866Z,3.73
2018-07-17T14:09:52.548Z,4.70
2018-07-17T14:12:21.073Z,4.47
2018-07-17T14:14:56.950Z,4.30
2018-07-17T14:17:25.522Z,3.80
2018-07-17T14:19:54.105Z,4.13
2018-07-17T14:22:22.726Z,3.40
2018-07-17T14:24:51.197Z,3.77
2018-07-17T14:27:19.638Z,4.20
2018-07-17T14:29:48.193Z,3.50
2018-07-17T14:32:16.650Z,3.23
2018-07-17T14:34:45.163Z,3.60
2018-07-17T14:37:13.622Z,3.90
2018-07-17T14:39:42.121Z,4.03
2018-07-17T14:42:10.676Z,3.67
2018-07-17T14:44:39.302Z,3.17
2018-07-17T14:47:07.760Z,3.50
2018-07-17T14:49:36.324Z,3.30
2018-07-17T14:52:05.111Z,3.07
2018-07-17T14:54:33.617Z,3.30
2018-07-17T14:57:02.291Z,3.10
2018-07-17T14:59:30.770Z,3.27
2018-07-17T15:01:59.246Z,3.20
2018-07-17T15:04:27.723Z,3.40
2018-07-17T15:06:56.297Z,3.33
2018-07-17T15:09:24.876Z,3.27
2018-07-17T15:11:53.384Z,3.07
2018-07-17T15:14:22.069Z,3.20
2018-07-17T15:16:50.729Z,3.17
2018-07-17T15:19:19.244Z,2.53
2018-07-17T15:21:51.857Z,2.80
2018-07-17T15:24:20.324Z,3.40
2018-07-17T15:26:48.858Z,2.67
2018-07-17T15:29:21.024Z,2.70
2018-07-17T15:32:19.929Z,3.53
2018-07-17T15:34:48.404Z,3.17
2018-07-17T15:37:17.028Z,3.03
2018-07-17T15:39:45.558Z,2.87
2018-07-17T15:42:14.356Z,2.40
2018-07-17T15:44:42.850Z,2.60
2018-07-17T15:47:11.634Z,2.17
2018-07-17T15:49:40.132Z,3.53
2018-07-17T15:52:08.685Z,2.27
2018-07-17T15:54:38.281Z,2.70
2018-07-17T15:57:06.872Z,2.50
2018-07-17T15:59:35.325Z,2.70
2018-07-17T16:02:03.785Z,2.23
2018-07-17T16:04:32.343Z,2.50
2018-07-17T16:07:01.110Z,3.00
2018-07-17T16:09:29.561Z,2.70
2018-07-17T16:11:58.059Z,2.67
2018-07-17T16:14:26.741Z,2.60
2018-07-17T16:16:55.129Z,2.30
2018-07-17T16:19:24.565Z,1.87
2018-07-17T16:21:53.107Z,2.40
2018-07-17T16:24:21.765Z,2.20
2018-07-17T16:26:50.287Z,2.10
2018-07-17T16:29:18.762Z,2.00
2018-07-17T16:31:47.243Z,2.50
2018-07-17T16:34:15.751Z,2.80
2018-07-17T16:36:44.326Z,3.73
2018-07-17T16:39:12.780Z,3.87
2018-07-17T16:41:41.267Z,3.00
2018-07-17T16:44:09.714Z,2.73
2018-07-17T16:46:38.656Z,2.80
2018-07-17T16:49:07.231Z,3.50
2018-07-17T16:51:35.785Z,4.13
2018-07-17T16:54:04.236Z,3.50
2018-07-17T16:56:32.967Z,3.23
2018-07-17T16:59:01.449Z,4.17
2018-07-17T17:01:29.877Z,3.97
2018-07-17T17:03:58.437Z,4.77
2018-07-17T17:06:26.915Z,3.53
2018-07-17T17:08:55.536Z,3.90
2018-07-17T17:11:24.289Z,3.60
2018-07-17T17:13:52.873Z,3.70
2018-07-17T17:16:21.481Z,3.37
2018-07-17T17:18:50.037Z,4.00
2018-07-17T17:21:18.607Z,2.83
2018-07-17T17:23:47.236Z,3.47
2018-07-17T17:26:15.792Z,3.37
2018-07-17T17:28:44.286Z,3.10
2018-07-17T17:31:14.893Z,3.67
2018-07-17T17:33:43.372Z,2.47
2018-07-17T17:36:12.139Z,2.53
2018-07-17T17:38:40.652Z,2.90
2018-07-17T17:41:09.085Z,3.00
2018-07-17T17:43:38.632Z,2.60
2018-07-17T17:46:07.122Z,2.73
2018-07-17T17:48:36.338Z,2.63
2018-07-17T17:51:08.788Z,2.30
2018-07-17T17:53:37.245Z,2.57
2018-07-17T17:56:05.796Z,2.77
2018-07-17T17:58:34.536Z,2.50
2018-07-17T18:01:10.311Z,2.33
2018-07-17T18:03:38.732Z,3.07
2018-07-17T18:06:07.198Z,3.03
2018-07-17T18:08:35.637Z,2.83
2018-07-17T18:11:04.101Z,2.43
2018-07-17T18:13:32.575Z,2.40
2018-07-17T18:16:01.188Z,2.47
2018-07-17T18:18:29.803Z,2.40
2018-07-17T18:20:58.216Z,3.13
2018-07-17T18:23:26.705Z,2.53
2018-07-17T18:25:55.153Z,2.97
2018-07-17T18:28:23.734Z,3.30
2018-07-17T18:30:52.205Z,3.00
2018-07-17T18:33:20.739Z,3.30
2018-07-17T18:35:49.186Z,3.33
2018-07-17T18:38:18.122Z,3.03
2018-07-17T18:40:46.614Z,3.53
2018-07-17T18:43:15.046Z,2.80
2018-07-17T18:45:43.771Z,2.63
2018-07-17T18:48:12.321Z,3.33
2018-07-17T18:50:41.132Z,2.80
2018-07-17T18:53:09.609Z,3.10
2018-07-17T18:55:50.536Z,2.27
2018-07-17T18:58:18.962Z,4.00
2018-07-17T19:00:48.108Z,2.80
2018-07-17T19:03:16.774Z,2.77
2018-07-17T19:05:45.365Z,2.73
2018-07-17T19:08:14.115Z,2.70
2018-07-17T19:10:44.350Z,2.50
2018-07-17T19:13:12.843Z,2.80
2018-07-17T19:15:41.400Z,2.40
2018-07-17T19:18:10.005Z,2.93
2018-07-17T19:20:38.479Z,2.80
2018-07-17T19:23:07.738Z,2.87
2018-07-17T19:25:36.916Z,2.30
2018-07-17T19:28:05.500Z,2.07
2018-07-17T19:30:33.973Z,2.17
2018-07-17T19:33:02.530Z,2.17
2018-07-17T19:35:31.142Z,2.07
2018-07-17T19:37:59.696Z,2.50
2018-07-17T19:40:28.138Z,1.90
2018-07-17T19:42:56.654Z,2.40
2018-07-17T19:45:25.094Z,2.30
2018-07-17T19:47:53.657Z,2.43
2018-07-17T19:50:22.191Z,2.90
2018-07-17T19:52:50.769Z,2.33
2018-07-17T19:55:19.380Z,2.47
2018-07-17T19:57:47.897Z,3.20
2018-07-17T20:00:17.578Z,2.90
2018-07-17T20:02:46.169Z,2.30
2018-07-17T20:05:14.780Z,3.37
2018-07-17T20:07:43.250Z,3.63
2018-07-17T20:10:11.815Z,3.17
2018-07-17T20:13:12.755Z,3.30
2018-07-17T20:15:41.285Z,3.40
2018-07-17T20:18:09.800Z,2.40
2018-07-17T20:20:38.409Z,3.80
2018-07-17T20:23:06.923Z,3.33
2018-07-17T20:25:35.488Z,3.40
2018-07-17T20:28:04.033Z,2.80
2018-07-17T20:30:32.778Z,3.47
2018-07-17T20:33:01.248Z,3.00
2018-07-17T20:35:29.766Z,3.57
2018-07-17T20:37:58.236Z,4.03
2018-07-17T20:40:26.728Z,4.50
2018-07-17T20:42:55.249Z,3.67
2018-07-17T20:45:23.861Z,3.67
2018-07-17T20:47:52.338Z,4.10
2018-07-17T20:50:28.918Z,4.23
2018-07-17T20:52:57.551Z,4.27
2018-07-17T20:55:26.045Z,3.50
2018-07-17T20:57:54.845Z,4.20
2018-07-17T21:00:23.339Z,4.60
2018-07-17T21:02:52.220Z,4.77
2018-07-17T21:05:20.798Z,4.93
2018-07-17T21:07:49.268Z,5.20
2018-07-17T21:10:17.754Z,5.10
2018-07-17T21:12:46.222Z,5.77
2018-07-17T21:15:14.741Z,5.43
2018-07-17T21:17:47.208Z,5.03
2018-07-17T21:20:15.764Z,5.00
2018-07-17T21:22:44.289Z,5.23
2018-07-17T21:28:31.012Z,5.07
2018-07-17T21:30:59.638Z,6.07
2018-07-17T21:33:28.406Z,5.63
2018-07-17T21:35:57.088Z,5.43
2018-07-17T21:38:25.641Z,6.00
2018-07-17T21:40:54.219Z,5.43
2018-07-17T21:43:22.811Z,5.47
2018-07-17T21:45:51.284Z,6.40
2018-07-17T21:48:20.002Z,5.53
2018-07-17T21:50:48.766Z,5.47
2018-07-17T21:53:17.236Z,6.33
2018-07-17T21:55:45.943Z,6.87
2018-07-17T21:58:14.509Z,6.90
2018-07-17T22:00:52.928Z,6.13
2018-07-17T22:03:28.595Z,5.73
2018-07-17T22:05:57.268Z,6.00
2018-07-17T22:08:25.861Z,5.70
2018-07-17T22:10:54.467Z,6.40
2018-07-17T22:13:23.090Z,6.87
2018-07-17T22:15:51.685Z,6.97
2018-07-17T22:18:20.154Z,6.20
2018-07-17T22:20:48.599Z,7.03
2018-07-17T22:23:17.443Z,6.50
2018-07-17T22:25:45.931Z,6.40
2018-07-17T22:28:14.653Z,7.10
2018-07-17T22:30:43.153Z,6.47
2018-07-17T22:33:22.684Z,6.43
2018-07-17T22:35:51.181Z,6.10
2018-07-17T22:38:19.753Z,7.30
2018-07-17T22:40:48.275Z,6.50
2018-07-17T22:43:17.649Z,6.80
2018-07-17T22:45:46.203Z,5.43
2018-07-17T22:48:14.664Z,6.47
2018-07-17T22:50:43.138Z,6.17
2018-07-17T22:53:11.925Z,6.77
2018-07-17T22:55:40.552Z,6.10
2018-07-17T22:58:10.137Z,7.10
2018-07-17T23:00:51.765Z,7.00
2018-07-17T23:03:20.300Z,6.93
2018-07-17T23:05:48.773Z,7.87
2018-07-17T23:08:17.252Z,6.43
2018-07-17T23:10:45.941Z,6.17
2018-07-17T23:13:15.006Z,6.73
2018-07-17T23:15:43.515Z,7.73
2018-07-17T23:18:12.061Z,6.70
2018-07-17T23:20:40.575Z,7.47
2018-07-17T23:23:09.055Z,6.10
2018-07-17T23:25:37.524Z,6.80
2018-07-17T23:28:06.021Z,6.60
2018-07-17T23:30:34.507Z,6.80
2018-07-17T23:33:03.000Z,6.77
2018-07-17T23:35:31.433Z,7.67
2018-07-17T23:37:59.862Z,8.20
2018-07-17T23:40:28.365Z,6.73
2018-07-17T23:42:56.801Z,8.73
2018-07-17T23:45:25.293Z,9.00
2018-07-17T23:47:53.771Z,8.47
2018-07-17T23:50:22.181Z,7.07
2018-07-17T23:52:50.623Z,8.80
2018-07-17T23:55:19.100Z,7.80
2018-07-17T23:57:47.528Z,7.13
